createdAt,value
2017-04-19T00:00:05.420Z,1026.45
2017-04-19T00:00:59.448Z,1026.40
2017-04-19T00:01:48.500Z,1026.43
2017-04-19T00:02:43.546Z,1026.47
2017-04-19T00:03:38.548Z,1026.45
2017-04-19T00:04:32.544Z,1026.47
2017-04-19T00:05:26.610Z,1026.50
2017-04-19T00:06:26.619Z,1026.48
2017-04-19T00:07:20.642Z,1026.55
2017-04-19T00:08:15.739Z,1026.52
2017-04-19T00:09:09.739Z,1026.56
2017-04-19T00:10:03.719Z,1026.55
2017-04-19T00:10:52.759Z,1026.57
2017-04-19T00:11:47.823Z,1026.53
2017-04-19T00:12:41.870Z,1026.58
2017-04-19T00:13:41.884Z,1026.59
2017-04-19T00:14:35.857Z,1026.60
2017-04-19T00:15:30.953Z,1026.62
2017-04-19T00:16:24.911Z,1026.57
2017-04-19T00:17:30.956Z,1026.58
2017-04-19T00:18:19.015Z,1026.60
2017-04-19T00:19:19.018Z,1026.58
2017-04-19T00:20:14.061Z,1026.64
2017-04-19T00:21:14.319Z,1026.61
2017-04-19T00:22:14.113Z,1026.63
2017-04-19T00:23:09.106Z,1026.65
2017-04-19T00:23:58.142Z,1026.67
2017-04-19T00:24:47.249Z,1026.64
2017-04-19T00:25:36.227Z,1026.64
2017-04-19T00:26:31.215Z,1026.63
2017-04-19T00:27:32.278Z,1026.60
2017-04-19T00:28:27.310Z,1026.66
2017-04-19T00:29:16.306Z,1026.61
2017-04-19T00:30:10.325Z,1026.59
2017-04-19T00:31:10.395Z,1026.62
2017-04-19T00:31:59.499Z,1026.59
2017-04-19T00:32:53.463Z,1026.59
2017-04-19T00:33:47.452Z,1026.60
2017-04-19T00:34:53.503Z,1026.60
2017-04-19T00:35:48.529Z,1026.57
2017-04-19T00:36:42.571Z,1026.60
2017-04-19T00:37:36.625Z,1026.58
2017-04-19T00:38:30.645Z,1026.57
2017-04-19T00:39:30.619Z,1026.58
2017-04-19T00:40:25.650Z,1026.56
2017-04-19T00:41:14.647Z,1026.59
2017-04-19T00:42:08.737Z,1026.60
2017-04-19T00:42:57.747Z,1026.58
2017-04-19T00:43:46.069Z,1026.59
2017-04-19T00:44:39.827Z,1026.58
2017-04-19T00:45:28.812Z,1026.59
2017-04-19T00:46:22.870Z,1026.57
2017-04-19T00:47:17.905Z,1026.60
2017-04-19T00:48:06.020Z,1026.59
2017-04-19T00:49:05.923Z,1026.58
2017-04-19T00:49:59.965Z,1026.60
2017-04-19T00:50:54.040Z,1026.63
2017-04-19T00:51:42.217Z,1026.63
2017-04-19T00:52:43.809Z,1026.63
2017-04-19T00:53:32.110Z,1026.65
2017-04-19T00:54:26.109Z,1026.62
2017-04-19T00:55:33.135Z,1026.61
2017-04-19T00:56:28.159Z,1026.64
2017-04-19T00:57:22.136Z,1026.66
2017-04-19T00:58:23.225Z,1026.63
2017-04-19T00:59:17.269Z,1026.65
2017-04-19T01:00:17.317Z,1026.67
2017-04-19T01:01:11.349Z,1026.66
2017-04-19T01:02:12.327Z,1026.68
2017-04-19T01:03:06.353Z,1026.67
2017-04-19T01:03:55.365Z,1026.67
2017-04-19T01:04:49.437Z,1026.67
2017-04-19T01:05:43.468Z,1026.63
2017-04-19T01:06:37.540Z,1026.67
2017-04-19T01:07:31.572Z,1026.69
2017-04-19T01:08:26.553Z,1026.73
2017-04-19T01:09:20.547Z,1026.74
2017-04-19T01:10:14.558Z,1026.75
2017-04-19T01:11:09.619Z,1026.76
2017-04-19T01:11:58.564Z,1026.78
2017-04-19T01:12:53.638Z,1026.78
2017-04-19T01:13:47.701Z,1026.75
2017-04-19T01:14:41.928Z,1026.79
2017-04-19T01:15:29.775Z,1026.79
2017-04-19T01:16:24.729Z,1026.78
2017-04-19T01:17:18.852Z,1026.77
2017-04-19T01:18:19.167Z,1026.80
2017-04-19T01:19:13.899Z,1026.79
2017-04-19T01:20:13.835Z,1026.78
2017-04-19T01:21:07.947Z,1026.87
2017-04-19T01:22:01.936Z,1026.83
2017-04-19T01:22:51.088Z,1026.81
2017-04-19T01:23:40.113Z,1026.84
2017-04-19T01:24:29.109Z,1026.83
2017-04-19T01:25:23.059Z,1026.91
2017-04-19T01:26:18.102Z,1026.87
2017-04-19T01:27:07.111Z,1026.92
2017-04-19T01:27:56.166Z,1026.88
2017-04-19T01:28:50.192Z,1026.92
2017-04-19T01:29:45.256Z,1026.90
2017-04-19T01:30:39.320Z,1026.89
2017-04-19T01:31:33.226Z,1026.91
2017-04-19T01:32:22.290Z,1026.92
2017-04-19T01:33:22.364Z,1026.94
2017-04-19T01:34:17.335Z,1026.92
2017-04-19T01:35:11.348Z,1026.94
2017-04-19T01:36:11.701Z,1026.94
2017-04-19T01:37:06.422Z,1026.93
2017-04-19T01:38:06.500Z,1026.93
2017-04-19T01:38:55.498Z,1026.91
2017-04-19T01:39:43.516Z,1026.89
2017-04-19T01:40:38.672Z,1026.88
2017-04-19T01:41:32.622Z,1026.95
2017-04-19T01:42:26.560Z,1026.93
2017-04-19T01:43:21.674Z,1026.97
2017-04-19T01:44:09.610Z,1026.96
2017-04-19T01:45:09.844Z,1026.99
2017-04-19T01:46:03.749Z,1026.98
2017-04-19T01:46:57.747Z,1026.96
2017-04-19T01:47:57.729Z,1026.96
2017-04-19T01:48:57.757Z,1026.94
2017-04-19T01:49:52.805Z,1026.91
2017-04-19T01:50:47.920Z,1026.94
2017-04-19T01:51:41.827Z,1026.97
2017-04-19T01:52:36.865Z,1026.94
2017-04-19T01:53:30.953Z,1026.97
2017-04-19T01:54:30.919Z,1026.97
2017-04-19T01:55:24.909Z,1026.95
2017-04-19T01:56:24.980Z,1026.97
2017-04-19T01:57:19.029Z,1026.99
2017-04-19T01:58:14.011Z,1027.02
2017-04-19T01:59:08.029Z,1027.02
2017-04-19T02:00:08.046Z,1027.06
2017-04-19T02:01:08.114Z,1027.05
2017-04-19T02:02:03.138Z,1027.01
2017-04-19T02:02:58.146Z,1027.06
2017-04-19T02:03:58.110Z,1027.07
2017-04-19T02:04:52.273Z,1027.03
2017-04-19T02:05:53.174Z,1027.02
2017-04-19T02:06:48.224Z,1027.05
2017-04-19T02:07:42.240Z,1027.04
2017-04-19T02:08:37.502Z,1027.05
2017-04-19T02:09:31.280Z,1027.06
2017-04-19T02:10:31.608Z,1027.05
2017-04-19T02:11:26.319Z,1027.04
2017-04-19T02:12:20.394Z,1027.08
2017-04-19T02:13:14.326Z,1027.09
2017-04-19T02:14:08.439Z,1027.07
2017-04-19T02:15:03.422Z,1027.09
2017-04-19T02:15:58.485Z,1027.03
2017-04-19T02:16:58.498Z,1027.06
2017-04-19T02:17:52.567Z,1027.09
2017-04-19T02:18:46.678Z,1027.08
2017-04-19T02:19:35.558Z,1027.06
2017-04-19T02:20:29.592Z,1027.11
2017-04-19T02:21:24.623Z,1027.07
2017-04-19T02:22:12.655Z,1027.11
2017-04-19T02:23:06.619Z,1027.12
2017-04-19T02:24:00.696Z,1027.14
2017-04-19T02:24:54.765Z,1027.12
2017-04-19T02:25:49.740Z,1027.13
2017-04-19T02:26:44.820Z,1027.15
2017-04-19T02:27:33.809Z,1027.17
2017-04-19T02:28:27.872Z,1027.17
2017-04-19T02:29:21.962Z,1027.17
2017-04-19T02:30:15.876Z,1027.21
2017-04-19T02:31:09.918Z,1027.17
2017-04-19T02:32:03.967Z,1027.18
2017-04-19T02:32:59.007Z,1027.21
2017-04-19T02:33:59.998Z,1027.24
2017-04-19T02:34:49.030Z,1027.20
2017-04-19T02:35:44.051Z,1027.21
2017-04-19T02:36:38.117Z,1027.21
2017-04-19T02:37:38.106Z,1027.18
2017-04-19T02:38:32.173Z,1027.19
2017-04-19T02:39:21.157Z,1027.20
2017-04-19T02:40:16.151Z,1027.23
2017-04-19T02:41:05.265Z,1027.16
2017-04-19T02:42:05.236Z,1027.20
2017-04-19T02:42:59.297Z,1027.19
2017-04-19T02:43:59.309Z,1027.21
2017-04-19T02:44:48.417Z,1027.24
2017-04-19T02:45:43.752Z,1027.21
2017-04-19T02:46:43.655Z,1027.21
2017-04-19T02:47:38.383Z,1027.26
2017-04-19T02:48:33.445Z,1027.24
2017-04-19T02:49:21.495Z,1027.29
2017-04-19T02:50:21.475Z,1027.23
2017-04-19T02:51:21.911Z,1027.29
2017-04-19T02:52:15.625Z,1027.26
2017-04-19T02:53:10.560Z,1027.28
2017-04-19T02:54:05.519Z,1027.29
2017-04-19T02:54:59.612Z,1027.26
2017-04-19T02:55:53.661Z,1027.22
2017-04-19T02:56:47.650Z,1027.26
2017-04-19T02:57:35.731Z,1027.27
2017-04-19T02:58:30.766Z,1027.25
2017-04-19T02:59:24.817Z,1027.27
2017-04-19T03:00:24.749Z,1027.26
2017-04-19T03:01:18.769Z,1027.29
2017-04-19T03:02:18.805Z,1027.31
2017-04-19T03:03:12.858Z,1027.32
2017-04-19T03:04:06.881Z,1027.28
2017-04-19T03:04:55.928Z,1027.30
2017-04-19T03:05:56.148Z,1027.32
2017-04-19T03:06:49.914Z,1027.36
2017-04-19T03:07:38.985Z,1027.31
2017-04-19T03:08:40.003Z,1027.36
2017-04-19T03:09:34.117Z,1027.31
2017-04-19T03:10:34.065Z,1027.37
2017-04-19T03:11:28.079Z,1027.31
2017-04-19T03:12:22.090Z,1027.33
2017-04-19T03:13:16.123Z,1027.30
2017-04-19T03:14:11.170Z,1027.34
2017-04-19T03:15:00.166Z,1027.31
2017-04-19T03:15:54.232Z,1027.31
2017-04-19T03:16:48.252Z,1027.33
2017-04-19T03:17:37.265Z,1027.31
2017-04-19T03:18:26.326Z,1027.31
2017-04-19T03:19:14.355Z,1027.33
2017-04-19T03:20:08.343Z,1027.31
2017-04-19T03:21:03.399Z,1027.35
2017-04-19T03:22:04.396Z,1027.32
2017-04-19T03:23:04.445Z,1027.31
2017-04-19T03:23:59.401Z,1027.31
2017-04-19T03:24:59.612Z,1027.35
2017-04-19T03:25:53.473Z,1027.35
2017-04-19T03:26:53.535Z,1027.34
2017-04-19T03:27:48.510Z,1027.38
2017-04-19T03:28:42.550Z,1027.38
2017-04-19T03:29:37.627Z,1027.41
2017-04-19T03:30:32.621Z,1027.38
2017-04-19T03:31:21.629Z,1027.44
2017-04-19T03:32:27.695Z,1027.39
2017-04-19T03:33:21.660Z,1027.46
2017-04-19T03:34:21.701Z,1027.45
2017-04-19T03:35:10.715Z,1027.46
2017-04-19T03:35:58.743Z,1027.45
2017-04-19T03:36:46.806Z,1027.45
2017-04-19T03:37:40.847Z,1027.48
2017-04-19T03:38:40.858Z,1027.51
2017-04-19T03:39:29.894Z,1027.49
2017-04-19T03:40:29.910Z,1027.50
2017-04-19T03:41:24.922Z,1027.56
2017-04-19T03:42:19.951Z,1027.50
2017-04-19T03:43:20.256Z,1027.57
2017-04-19T03:44:14.988Z,1027.55
2017-04-19T03:45:10.029Z,1027.56
2017-04-19T03:46:11.044Z,1027.55
2017-04-19T03:47:12.030Z,1027.58
2017-04-19T03:48:13.049Z,1027.58
2017-04-19T03:49:13.136Z,1027.60
2017-04-19T03:50:14.139Z,1027.61
2017-04-19T03:51:08.131Z,1027.62
2017-04-19T03:52:08.153Z,1027.64
2017-04-19T03:53:03.316Z,1027.65
2017-04-19T03:53:58.261Z,1027.61
2017-04-19T03:54:58.220Z,1027.65
2017-04-19T03:55:53.233Z,1027.64
2017-04-19T03:56:48.259Z,1027.66
2017-04-19T03:57:49.329Z,1027.61
2017-04-19T03:58:49.347Z,1027.64
2017-04-19T03:59:44.367Z,1027.68
2017-04-19T04:00:39.390Z,1027.68
2017-04-19T04:01:33.418Z,1027.67
2017-04-19T04:02:27.462Z,1027.68
2017-04-19T04:03:22.432Z,1027.64
2017-04-19T04:04:22.635Z,1027.65
2017-04-19T04:05:17.504Z,1027.70
2017-04-19T04:06:12.591Z,1027.67
2017-04-19T04:07:01.561Z,1027.68
2017-04-19T04:07:55.601Z,1027.69
2017-04-19T04:08:50.733Z,1027.75
2017-04-19T04:09:39.648Z,1027.74
2017-04-19T04:10:40.649Z,1027.73
2017-04-19T04:11:34.660Z,1027.73
2017-04-19T04:12:28.718Z,1027.71
2017-04-19T04:13:22.748Z,1027.76
2017-04-19T04:14:11.774Z,1027.75
2017-04-19T04:15:05.811Z,1027.72
2017-04-19T04:16:00.830Z,1027.73
2017-04-19T04:16:54.827Z,1027.72
2017-04-19T04:17:49.883Z,1027.77
2017-04-19T04:18:49.909Z,1027.76
2017-04-19T04:19:38.922Z,1027.77
2017-04-19T04:20:33.934Z,1027.76
2017-04-19T04:21:33.963Z,1027.75
2017-04-19T04:22:28.051Z,1027.74
2017-04-19T04:23:23.024Z,1027.75
2017-04-19T04:24:18.079Z,1027.75
2017-04-19T04:25:12.058Z,1027.71
2017-04-19T04:26:06.125Z,1027.77
2017-04-19T04:27:00.092Z,1027.75
2017-04-19T04:28:00.430Z,1027.76
2017-04-19T04:28:54.201Z,1027.75
2017-04-19T04:29:55.252Z,1027.76
2017-04-19T04:30:50.234Z,1027.78
2017-04-19T04:31:50.289Z,1027.80
2017-04-19T04:32:45.278Z,1027.76
2017-04-19T04:33:45.464Z,1027.78
2017-04-19T04:34:40.350Z,1027.78
2017-04-19T04:35:35.331Z,1027.81
2017-04-19T04:36:29.364Z,1027.81
2017-04-19T04:37:24.454Z,1027.82
2017-04-19T04:38:18.454Z,1027.82
2017-04-19T04:39:18.501Z,1027.82
2017-04-19T04:40:07.512Z,1027.84
2017-04-19T04:41:01.558Z,1027.86
2017-04-19T04:41:55.566Z,1027.84
2017-04-19T04:42:50.567Z,1027.84
2017-04-19T04:43:44.794Z,1027.84
2017-04-19T04:44:44.639Z,1027.85
2017-04-19T04:45:39.636Z,1027.85
2017-04-19T04:46:34.666Z,1027.86
2017-04-19T04:47:28.636Z,1027.82
2017-04-19T04:48:22.712Z,1027.89
2017-04-19T04:49:17.197Z,1027.90
2017-04-19T04:50:11.102Z,1027.89
2017-04-19T04:51:05.789Z,1027.96
2017-04-19T04:52:00.823Z,1027.91
2017-04-19T04:52:54.847Z,1027.92
2017-04-19T04:53:50.013Z,1027.92
2017-04-19T04:54:45.158Z,1027.93
2017-04-19T04:55:38.991Z,1027.95
2017-04-19T04:56:33.944Z,1027.98
2017-04-19T04:57:27.994Z,1028.00
2017-04-19T04:58:22.997Z,1028.00
2017-04-19T04:59:17.039Z,1028.01
2017-04-19T05:00:12.046Z,1028.01
2017-04-19T05:01:07.124Z,1028.03
2017-04-19T05:02:01.104Z,1028.04
2017-04-19T05:02:49.150Z,1028.01
2017-04-19T05:03:43.202Z,1028.04
2017-04-19T05:04:32.298Z,1028.03
2017-04-19T05:05:20.240Z,1028.00
2017-04-19T05:06:15.297Z,1028.01
2017-04-19T05:07:10.308Z,1028.06
2017-04-19T05:07:59.333Z,1028.03
2017-04-19T05:08:53.343Z,1028.06
2017-04-19T05:09:42.425Z,1028.07
2017-04-19T05:10:37.556Z,1028.07
2017-04-19T05:11:31.574Z,1028.06
2017-04-19T05:12:26.506Z,1028.09
2017-04-19T05:13:15.992Z,1028.05
2017-04-19T05:14:04.541Z,1028.06
2017-04-19T05:14:52.584Z,1028.07
2017-04-19T05:15:46.609Z,1028.07
2017-04-19T05:16:35.685Z,1028.08
2017-04-19T05:17:29.690Z,1028.07
2017-04-19T05:18:24.748Z,1028.12
2017-04-19T05:19:24.763Z,1028.11
2017-04-19T05:20:19.757Z,1028.14
2017-04-19T05:21:19.807Z,1028.15
2017-04-19T05:22:08.855Z,1028.15
2017-04-19T05:22:58.064Z,1028.14
2017-04-19T05:23:52.872Z,1028.10
2017-04-19T05:24:46.948Z,1028.15
2017-04-19T05:25:42.025Z,1028.16
2017-04-19T05:26:31.046Z,1028.17
2017-04-19T05:27:26.339Z,1028.15
2017-04-19T05:28:21.013Z,1028.18
2017-04-19T05:29:10.113Z,1028.18
2017-04-19T05:29:59.112Z,1028.21
2017-04-19T05:30:54.164Z,1028.24
2017-04-19T05:31:43.213Z,1028.26
2017-04-19T05:32:32.293Z,1028.23
2017-04-19T05:33:26.261Z,1028.22
2017-04-19T05:34:27.296Z,1028.26
2017-04-19T05:35:16.343Z,1028.27
2017-04-19T05:36:05.369Z,1028.26
2017-04-19T05:36:54.438Z,1028.24
2017-04-19T05:37:48.738Z,1028.31
2017-04-19T05:38:48.443Z,1028.30
2017-04-19T05:39:42.546Z,1028.27
2017-04-19T05:40:43.620Z,1028.33
2017-04-19T05:41:43.530Z,1028.32
2017-04-19T05:42:37.570Z,1028.33
2017-04-19T05:43:32.035Z,1028.35
2017-04-19T05:44:26.660Z,1028.29
2017-04-19T05:45:21.680Z,1028.36
2017-04-19T05:46:15.703Z,1028.31
2017-04-19T05:47:10.745Z,1028.35
2017-04-19T05:48:04.762Z,1028.34
2017-04-19T05:49:05.092Z,1028.33
2017-04-19T05:49:59.145Z,1028.34
2017-04-19T05:50:58.854Z,1028.36
2017-04-19T05:51:53.922Z,1028.36
2017-04-19T05:52:47.952Z,1028.35
2017-04-19T05:53:36.005Z,1028.39
2017-04-19T05:54:36.234Z,1028.39
2017-04-19T05:55:31.072Z,1028.39
2017-04-19T05:56:25.114Z,1028.42
2017-04-19T05:57:20.140Z,1028.42
2017-04-19T05:58:14.430Z,1028.44
2017-04-19T05:59:14.175Z,1028.46
2017-04-19T06:00:09.819Z,1028.46
2017-04-19T06:01:04.392Z,1028.48
2017-04-19T06:01:58.357Z,1028.49
2017-04-19T06:02:59.313Z,1028.49
2017-04-19T06:03:53.317Z,1028.54
2017-04-19T06:04:47.461Z,1028.52
2017-04-19T06:05:47.681Z,1028.58
2017-04-19T06:06:41.462Z,1028.57
2017-04-19T06:07:41.506Z,1028.60
2017-04-19T06:08:36.581Z,1028.63
2017-04-19T06:09:31.546Z,1028.63
2017-04-19T06:10:31.622Z,1028.62
2017-04-19T06:11:26.656Z,1028.69
2017-04-19T06:12:21.698Z,1028.67
2017-04-19T06:13:16.169Z,1028.67
2017-04-19T06:14:09.842Z,1028.69
2017-04-19T06:15:04.782Z,1028.65
2017-04-19T06:15:58.824Z,1028.70
2017-04-19T06:16:59.055Z,1028.71
2017-04-19T06:17:59.193Z,1028.72
2017-04-19T06:18:58.899Z,1028.75
2017-04-19T06:19:58.956Z,1028.78
2017-04-19T06:20:58.953Z,1028.73
2017-04-19T06:21:58.954Z,1028.81
2017-04-19T06:22:54.034Z,1028.79
2017-04-19T06:23:48.074Z,1028.78
2017-04-19T06:24:48.232Z,1028.81
2017-04-19T06:25:43.128Z,1028.86
2017-04-19T06:26:38.169Z,1028.85
2017-04-19T06:27:32.288Z,1028.81
2017-04-19T06:28:32.279Z,1028.84
2017-04-19T06:29:26.344Z,1028.83
2017-04-19T06:30:27.337Z,1028.83
2017-04-19T06:31:28.338Z,1028.81
2017-04-19T06:32:28.394Z,1028.86
2017-04-19T06:33:23.458Z,1028.86
2017-04-19T06:34:23.471Z,1028.88
2017-04-19T06:35:18.611Z,1028.87
2017-04-19T06:36:13.529Z,1028.88
2017-04-19T06:37:07.643Z,1028.94
2017-04-19T06:38:07.706Z,1028.96
2017-04-19T06:39:02.670Z,1028.97
2017-04-19T06:39:57.737Z,1028.98
2017-04-19T06:40:57.742Z,1029.00
2017-04-19T06:41:51.758Z,1029.04
2017-04-19T06:42:51.769Z,1029.08
2017-04-19T06:43:46.834Z,1029.03
2017-04-19T06:44:40.889Z,1029.02
2017-04-19T06:45:40.931Z,1029.09
2017-04-19T06:46:35.989Z,1029.06
2017-04-19T06:47:31.029Z,1029.05
2017-04-19T06:48:31.042Z,1029.08
2017-04-19T06:49:26.066Z,1029.14
2017-04-19T06:50:21.083Z,1029.05
2017-04-19T06:51:15.232Z,1029.11
2017-04-19T06:52:15.255Z,1029.11
2017-04-19T06:53:09.247Z,1029.14
2017-04-19T06:54:10.274Z,1029.13
2017-04-19T06:55:10.734Z,1029.11
2017-04-19T06:56:10.310Z,1029.11
2017-04-19T06:57:04.353Z,1029.11
2017-04-19T06:58:04.408Z,1029.10
2017-04-19T06:58:59.492Z,1029.12
2017-04-19T06:59:54.465Z,1029.10
2017-04-19T07:00:48.600Z,1029.12
2017-04-19T07:01:48.543Z,1029.12
2017-04-19T07:02:43.604Z,1029.13
2017-04-19T07:03:38.711Z,1029.10
2017-04-19T07:04:38.685Z,1029.16
2017-04-19T07:05:32.706Z,1029.17
2017-04-19T07:06:32.766Z,1029.17
2017-04-19T07:07:32.788Z,1029.17
2017-04-19T07:08:32.853Z,1029.17
2017-04-19T07:09:33.043Z,1029.17
2017-04-19T07:10:32.920Z,1029.23
2017-04-19T07:11:32.943Z,1029.24
2017-04-19T07:12:32.984Z,1029.14
2017-04-19T07:13:27.015Z,1029.20
2017-04-19T07:14:21.058Z,1029.26
2017-04-19T07:15:21.193Z,1029.20
2017-04-19T07:16:15.108Z,1029.22
2017-04-19T07:17:15.179Z,1029.21
2017-04-19T07:18:09.184Z,1029.21
2017-04-19T07:19:09.255Z,1029.20
2017-04-19T07:20:03.264Z,1029.19
2017-04-19T07:21:03.396Z,1029.22
2017-04-19T07:21:57.352Z,1029.26
2017-04-19T07:22:58.415Z,1029.26
2017-04-19T07:23:53.441Z,1029.26
2017-04-19T07:24:53.477Z,1029.22
2017-04-19T07:25:48.587Z,1029.19
2017-04-19T07:26:48.825Z,1029.21
2017-04-19T07:27:43.724Z,1029.07
2017-04-19T07:28:38.635Z,1029.21
2017-04-19T07:29:27.659Z,1029.27
2017-04-19T07:30:22.689Z,1029.31
2017-04-19T07:31:16.742Z,1029.30
2017-04-19T07:32:17.106Z,1029.28
2017-04-19T07:33:10.909Z,1029.26
2017-04-19T07:34:11.894Z,1029.32
2017-04-19T07:35:12.018Z,1029.32
2017-04-19T07:36:11.960Z,1029.32
2017-04-19T07:37:12.008Z,1029.32
2017-04-19T07:38:06.338Z,1029.16
2017-04-19T07:39:01.138Z,1029.21
2017-04-19T07:39:55.164Z,1029.24
2017-04-19T07:40:55.189Z,1029.22
2017-04-19T07:41:49.215Z,1029.47
2017-04-19T07:42:49.260Z,1029.52
2017-04-19T07:43:44.730Z,1029.41
2017-04-19T07:44:38.390Z,1029.27
2017-04-19T07:45:38.554Z,1029.31
2017-04-19T07:46:32.415Z,1029.50
2017-04-19T07:47:33.468Z,1029.31
2017-04-19T07:48:33.484Z,1029.52
2017-04-19T07:49:28.817Z,1029.47
2017-04-19T07:50:28.536Z,1029.46
2017-04-19T07:51:22.603Z,1029.40
2017-04-19T07:52:16.631Z,1029.36
2017-04-19T07:53:10.674Z,1029.36
2017-04-19T07:54:04.784Z,1029.43
2017-04-19T07:55:04.797Z,1029.43
2017-04-19T07:55:53.832Z,1029.40
2017-04-19T07:56:49.131Z,1029.41
2017-04-19T07:57:43.869Z,1029.35
2017-04-19T07:58:43.948Z,1029.42
2017-04-19T07:59:38.989Z,1029.44
2017-04-19T08:00:28.023Z,1029.34
2017-04-19T08:01:23.057Z,1029.41
2017-04-19T08:02:23.418Z,1029.42
2017-04-19T08:03:17.225Z,1029.21
2017-04-19T08:04:11.197Z,1029.26
2017-04-19T08:05:12.300Z,1029.28
2017-04-19T08:06:12.305Z,1029.47
2017-04-19T08:07:07.361Z,1029.59
2017-04-19T08:08:07.369Z,1029.54
2017-04-19T08:09:01.518Z,1029.59
2017-04-19T08:10:01.444Z,1029.68
2017-04-19T08:10:55.503Z,1029.60
2017-04-19T08:11:55.505Z,1029.41
2017-04-19T08:12:44.621Z,1029.57
2017-04-19T08:13:39.604Z,1029.56
2017-04-19T08:14:28.652Z,1029.59
2017-04-19T08:15:22.710Z,1029.43
2017-04-19T08:16:17.787Z,1029.52
2017-04-19T08:17:11.989Z,1029.52
2017-04-19T08:18:06.835Z,1029.48
2017-04-19T08:19:06.852Z,1029.51
2017-04-19T08:20:01.938Z,1029.48
2017-04-19T08:20:55.954Z,1029.26
2017-04-19T08:21:50.036Z,1029.45
2017-04-19T08:22:44.069Z,1029.40
2017-04-19T08:23:45.099Z,1029.49
2017-04-19T08:24:46.407Z,1029.47
2017-04-19T08:25:35.231Z,1029.41
2017-04-19T08:26:29.273Z,1029.51
2017-04-19T08:27:24.326Z,1029.54
2017-04-19T08:28:19.013Z,1029.50
2017-04-19T08:29:13.498Z,1029.52
2017-04-19T08:30:07.443Z,1029.49
2017-04-19T08:31:01.503Z,1029.49
2017-04-19T08:31:56.642Z,1029.49
2017-04-19T08:32:45.559Z,1029.49
2017-04-19T08:33:40.806Z,1029.53
2017-04-19T08:34:40.709Z,1029.59
2017-04-19T08:35:35.815Z,1029.65
2017-04-19T08:36:29.770Z,1029.54
2017-04-19T08:37:29.861Z,1029.37
2017-04-19T08:38:29.892Z,1029.33
2017-04-19T08:39:24.904Z,1029.37
2017-04-19T08:40:25.291Z,1029.45
2017-04-19T08:41:19.990Z,1029.55
2017-04-19T08:42:15.138Z,1029.50
2017-04-19T08:43:15.095Z,1029.58
2017-04-19T08:44:10.181Z,1029.78
2017-04-19T08:45:05.201Z,1029.75
2017-04-19T08:45:59.228Z,1029.77
2017-04-19T08:46:54.262Z,1029.73
2017-04-19T08:47:48.345Z,1029.67
2017-04-19T08:48:37.307Z,1029.67
2017-04-19T08:49:26.382Z,1029.70
2017-04-19T08:50:20.420Z,1029.67
2017-04-19T08:51:14.545Z,1029.65
2017-04-19T08:52:08.531Z,1029.64
2017-04-19T08:53:08.573Z,1029.64
2017-04-19T08:53:57.632Z,1029.69
2017-04-19T08:54:46.707Z,1029.74
2017-04-19T08:55:34.716Z,1029.69
2017-04-19T08:56:29.761Z,1029.77
2017-04-19T08:57:24.814Z,1029.86
2017-04-19T08:58:20.354Z,1029.81
2017-04-19T08:59:13.925Z,1029.81
2017-04-19T09:00:08.949Z,1029.83
2017-04-19T09:01:09.026Z,1029.83
2017-04-19T09:02:04.056Z,1029.60
2017-04-19T09:02:58.067Z,1029.79
2017-04-19T09:03:53.531Z,1029.82
2017-04-19T09:04:48.181Z,1029.80
2017-04-19T09:05:42.281Z,1029.86
2017-04-19T09:06:37.337Z,1029.78
2017-04-19T09:07:38.399Z,1029.57
2017-04-19T09:08:38.544Z,1029.63
2017-04-19T09:09:32.455Z,1030.01
2017-04-19T09:10:32.473Z,1030.16
2017-04-19T09:11:26.571Z,1029.91
2017-04-19T09:12:27.558Z,1030.17
2017-04-19T09:13:15.602Z,1030.06
2017-04-19T09:14:09.647Z,1030.08
2017-04-19T09:15:09.806Z,1030.09
2017-04-19T09:16:04.784Z,1029.77
2017-04-19T09:16:59.801Z,1030.13
2017-04-19T09:17:53.862Z,1030.17
2017-04-19T09:18:54.921Z,1030.10
2017-04-19T09:19:49.940Z,1030.13
2017-04-19T09:20:45.032Z,1030.12
2017-04-19T09:21:39.047Z,1029.99
2017-04-19T09:22:40.145Z,1030.09
2017-04-19T09:23:40.146Z,1029.90
2017-04-19T09:24:34.225Z,1029.88
2017-04-19T09:25:34.237Z,1029.78
2017-04-19T09:26:28.277Z,1029.77
2017-04-19T09:27:28.400Z,1029.87
2017-04-19T09:28:22.740Z,1030.02
2017-04-19T09:29:22.459Z,1030.03
2017-04-19T09:30:17.478Z,1030.03
2017-04-19T09:31:06.534Z,1030.04
2017-04-19T09:32:01.595Z,1030.03
2017-04-19T09:33:01.649Z,1029.99
2017-04-19T09:33:55.662Z,1030.07
2017-04-19T09:34:55.720Z,1030.01
2017-04-19T09:35:55.771Z,1030.08
2017-04-19T09:36:55.844Z,1030.11
2017-04-19T09:37:55.888Z,1030.10
2017-04-19T09:38:55.870Z,1030.06
2017-04-19T09:39:56.063Z,1030.04
2017-04-19T09:40:49.963Z,1030.07
2017-04-19T09:41:51.048Z,1030.09
2017-04-19T09:42:51.038Z,1029.99
2017-04-19T09:43:51.483Z,1030.04
2017-04-19T09:44:51.114Z,1030.05
2017-04-19T09:45:51.150Z,1030.07
2017-04-19T09:46:51.235Z,1029.97
2017-04-19T09:47:51.226Z,1030.22
2017-04-19T09:48:51.297Z,1030.09
2017-04-19T09:49:51.336Z,1029.93
2017-04-19T09:50:51.567Z,1029.92
2017-04-19T09:51:51.444Z,1030.11
2017-04-19T09:52:51.421Z,1030.04
2017-04-19T09:53:46.491Z,1030.09
2017-04-19T09:54:46.534Z,1030.05
2017-04-19T09:55:41.609Z,1030.09
2017-04-19T09:56:36.869Z,1030.08
2017-04-19T09:57:36.861Z,1030.11
2017-04-19T09:58:31.642Z,1030.10
2017-04-19T09:59:26.736Z,1030.22
2017-04-19T10:00:20.717Z,1030.32
2017-04-19T10:01:15.795Z,1030.25
2017-04-19T10:02:16.898Z,1030.17
2017-04-19T10:03:11.053Z,1030.12
2017-04-19T10:04:10.939Z,1030.10
2017-04-19T10:05:05.925Z,1029.80
2017-04-19T10:06:01.003Z,1030.18
2017-04-19T10:06:49.205Z,1030.17
2017-04-19T10:07:43.086Z,1030.05
2017-04-19T10:08:32.169Z,1030.15
2017-04-19T10:09:26.132Z,1030.20
2017-04-19T10:10:26.232Z,1030.17
2017-04-19T10:11:20.244Z,1030.34
2017-04-19T10:12:14.326Z,1030.36
2017-04-19T10:13:02.369Z,1030.07
2017-04-19T10:14:02.437Z,1030.15
2017-04-19T10:14:57.422Z,1030.26
2017-04-19T10:15:45.481Z,1030.42
2017-04-19T10:16:45.526Z,1030.28
2017-04-19T10:17:40.563Z,1030.33
2017-04-19T10:18:35.631Z,1030.32
2017-04-19T10:19:24.735Z,1030.15
2017-04-19T10:20:18.759Z,1030.12
2017-04-19T10:21:07.913Z,1030.16
2017-04-19T10:21:56.912Z,1030.34
2017-04-19T10:22:51.341Z,1030.35
2017-04-19T10:23:44.927Z,1030.21
2017-04-19T10:24:38.994Z,1030.21
2017-04-19T10:25:33.252Z,1030.19
2017-04-19T10:26:34.129Z,1030.22
2017-04-19T10:27:23.141Z,1030.15
2017-04-19T10:28:11.207Z,1030.19
2017-04-19T10:29:05.235Z,1030.12
2017-04-19T10:29:53.309Z,1030.19
2017-04-19T10:30:42.396Z,1029.92
2017-04-19T10:31:36.399Z,1030.18
2017-04-19T10:32:31.456Z,1029.88
2017-04-19T10:33:31.459Z,1029.81
2017-04-19T10:34:31.588Z,1029.80
2017-04-19T10:35:31.610Z,1030.07
2017-04-19T10:36:25.702Z,1030.12
2017-04-19T10:37:26.759Z,1030.14
2017-04-19T10:38:20.753Z,1029.96
2017-04-19T10:39:14.855Z,1029.91
2017-04-19T10:40:09.875Z,1029.85
2017-04-19T10:41:09.975Z,1029.92
2017-04-19T10:42:10.008Z,1029.93
2017-04-19T10:43:10.349Z,1029.88
2017-04-19T10:44:10.047Z,1029.92
2017-04-19T10:45:10.211Z,1030.19
2017-04-19T10:46:10.266Z,1029.92
2017-04-19T10:47:10.198Z,1029.83
2017-04-19T10:48:05.437Z,1030.11
2017-04-19T10:49:00.322Z,1029.82
2017-04-19T10:50:01.347Z,1029.87
2017-04-19T10:51:01.385Z,1029.93
2017-04-19T10:51:56.466Z,1029.86
2017-04-19T10:52:56.487Z,1029.88
2017-04-19T10:53:50.583Z,1029.95
2017-04-19T10:54:51.069Z,1029.98
2017-04-19T10:55:50.623Z,1030.02
2017-04-19T10:56:44.669Z,1030.02
2017-04-19T10:57:50.664Z,1030.24
2017-04-19T10:58:51.212Z,1030.09
2017-04-19T10:59:45.762Z,1030.13
2017-04-19T11:00:39.841Z,1030.06
2017-04-19T11:01:33.848Z,1030.00
2017-04-19T11:02:29.326Z,1029.94
2017-04-19T11:03:23.449Z,1029.91
2017-04-19T11:04:18.062Z,1029.93
2017-04-19T11:05:19.053Z,1029.97
2017-04-19T11:06:19.093Z,1029.96
2017-04-19T11:07:14.162Z,1029.98
2017-04-19T11:08:03.219Z,1029.98
2017-04-19T11:08:57.619Z,1030.06
2017-04-19T11:09:51.255Z,1030.11